Cerrillos, Argentina
Current Conditions -  °F | °C
As of 11:00 PM on Wednesday 17 Dec 2014 (Local Time) from SASA Reporting Station
Overcast Overcast  
Wind Chill: 64°   Ceiling: 10000
Heat Index: 64°   Visibility: 6mi
Dew Point: 63°   Wind: 2mph
Humidity: 94%   Direction: 140°SE
Pressure: 30.15"   Gusts: NA
Location:  24.9°S, 65.48°W
Report Text: SASA 180200Z 14002KT 9999 SCT020 OVC10018/17 Q1021
Loading
Personal Weather Stations






























Interactive Weather Map New forecast layout! Learn more

10-Day Weather Forecast

Advertisements
Track Severe Weather on mobile